sensor_id;sensor_type;location;lat;lon;timestamp;P1;durP1;ratioP1;P2;durP2;ratioP2
17253;SDS011;32542;52.832;13.816;2022-11-15T00:03:02;16.00;;;11.30;;
17253;SDS011;32542;52.832;13.816;2022-11-15T00:06:24;17.45;;;11.10;;
17253;SDS011;32542;52.832;13.816;2022-11-15T00:09:45;17.60;;;11.63;;
17253;SDS011;32542;52.832;13.816;2022-11-15T00:13:07;17.95;;;11.60;;
17253;SDS011;32542;52.832;13.816;2022-11-15T00:16:29;14.60;;;10.88;;
17253;SDS011;32542;52.832;13.816;2022-11-15T00:19:51;16.92;;;11.00;;
17253;SDS011;32542;52.832;13.816;2022-11-15T00:23:12;21.90;;;11.48;;
17253;SDS011;32542;52.832;13.816;2022-11-15T00:26:33;15.55;;;11.40;;
17253;SDS011;32542;52.832;13.816;2022-11-15T00:29:54;18.88;;;11.93;;
17253;SDS011;32542;52.832;13.816;2022-11-15T00:33:17;17.02;;;11.57;;
17253;SDS011;32542;52.832;13.816;2022-11-15T00:36:39;17.30;;;11.52;;
17253;SDS011;32542;52.832;13.816;2022-11-15T00:40:00;14.82;;;10.93;;
17253;SDS011;32542;52.832;13.816;2022-11-15T00:43:22;16.33;;;11.18;;
17253;SDS011;32542;52.832;13.816;2022-11-15T00:46:43;16.60;;;11.13;;
17253;SDS011;32542;52.832;13.816;2022-11-15T00:50:07;17.58;;;12.20;;
17253;SDS011;32542;52.832;13.816;2022-11-15T00:53:34;16.73;;;10.93;;
17253;SDS011;32542;52.832;13.816;2022-11-15T00:56:55;17.75;;;11.75;;
17253;SDS011;32542;52.832;13.816;2022-11-15T01:00:17;15.27;;;10.38;;
17253;SDS011;32542;52.832;13.816;2022-11-15T01:03:39;15.77;;;10.80;;
17253;SDS011;32542;52.832;13.816;2022-11-15T01:07:03;15.50;;;11.18;;
17253;SDS011;32542;52.832;13.816;2022-11-15T01:10:24;15.63;;;10.95;;
17253;SDS011;32542;52.832;13.816;2022-11-15T01:13:46;15.68;;;10.38;;
17253;SDS011;32542;52.832;13.816;2022-11-15T01:17:07;14.30;;;10.40;;
17253;SDS011;32542;52.832;13.816;2022-11-15T01:20:29;15.00;;;11.05;;
17253;SDS011;32542;52.832;13.816;2022-11-15T01:23:53;16.95;;;11.30;;
17253;SDS011;32542;52.832;13.816;2022-11-15T01:27:15;14.30;;;10.40;;
17253;SDS011;32542;52.832;13.816;2022-11-15T01:30:37;17.20;;;10.70;;
17253;SDS011;32542;52.832;13.816;2022-11-15T01:33:58;13.95;;;10.13;;
17253;SDS011;32542;52.832;13.816;2022-11-15T01:37:20;14.80;;;10.13;;
17253;SDS011;32542;52.832;13.816;2022-11-15T01:40:42;15.95;;;11.45;;
17253;SDS011;32542;52.832;13.816;2022-11-15T01:48:00;14.82;;;10.65;;
17253;SDS011;32542;52.832;13.816;2022-11-15T01:51:21;14.23;;;10.10;;
17253;SDS011;32542;52.832;13.816;2022-11-15T01:54:46;14.68;;;10.65;;
17253;SDS011;32542;52.832;13.816;2022-11-15T01:58:10;14.05;;;10.30;;
17253;SDS011;32542;52.832;13.816;2022-11-15T02:01:32;15.50;;;10.45;;
17253;SDS011;32542;52.832;13.816;2022-11-15T02:04:54;13.27;;;10.68;;
17253;SDS011;32542;52.832;13.816;2022-11-15T02:08:16;14.02;;;10.13;;
17253;SDS011;32542;52.832;13.816;2022-11-15T02:11:40;13.90;;;10.18;;
17253;SDS011;32542;52.832;13.816;2022-11-15T02:15:05;13.52;;;10.25;;
17253;SDS011;32542;52.832;13.816;2022-11-15T02:18:30;14.10;;;9.60;;
17253;SDS011;32542;52.832;13.816;2022-11-15T02:21:55;15.43;;;10.57;;
17253;SDS011;32542;52.832;13.816;2022-11-15T02:25:30;14.20;;;10.00;;
17253;SDS011;32542;52.832;13.816;2022-11-15T02:29:01;13.80;;;10.13;;
17253;SDS011;32542;52.832;13.816;2022-11-15T02:32:27;13.88;;;9.80;;
17253;SDS011;32542;52.832;13.816;2022-11-15T02:35:59;15.18;;;10.27;;
17253;SDS011;32542;52.832;13.816;2022-11-15T02:39:23;14.02;;;10.18;;
17253;SDS011;32542;52.832;13.816;2022-11-15T02:42:50;14.57;;;10.40;;
17253;SDS011;32542;52.832;13.816;2022-11-15T02:46:35;13.43;;;9.93;;
17253;SDS011;32542;52.832;13.816;2022-11-15T02:50:20;13.20;;;10.15;;
17253;SDS011;32542;52.832;13.816;2022-11-15T02:53:45;13.73;;;9.57;;
17253;SDS011;32542;52.832;13.816;2022-11-15T02:57:07;12.95;;;9.77;;
17253;SDS011;32542;52.832;13.816;2022-11-15T03:00:34;13.02;;;9.50;;
17253;SDS011;32542;52.832;13.816;2022-11-15T03:04:02;15.60;;;9.93;;
17253;SDS011;32542;52.832;13.816;2022-11-15T03:07:35;11.85;;;9.48;;
17253;SDS011;32542;52.832;13.816;2022-11-15T03:11:03;12.40;;;9.73;;
17253;SDS011;32542;52.832;13.816;2022-11-15T03:14:29;13.27;;;9.52;;
17253;SDS011;32542;52.832;13.816;2022-11-15T03:17:58;12.35;;;9.32;;
17253;SDS011;32542;52.832;13.816;2022-11-15T03:21:23;12.50;;;9.43;;
17253;SDS011;32542;52.832;13.816;2022-11-15T03:24:47;12.40;;;9.90;;
17253;SDS011;32542;52.832;13.816;2022-11-15T03:28:15;12.30;;;9.10;;
17253;SDS011;32542;52.832;13.816;2022-11-15T03:31:40;13.05;;;9.68;;
17253;SDS011;32542;52.832;13.816;2022-11-15T03:35:11;13.00;;;9.25;;
17253;SDS011;32542;52.832;13.816;2022-11-15T03:38:35;12.27;;;9.68;;
17253;SDS011;32542;52.832;13.816;2022-11-15T03:42:02;11.18;;;9.13;;
17253;SDS011;32542;52.832;13.816;2022-11-15T03:45:35;12.23;;;9.02;;
17253;SDS011;32542;52.832;13.816;2022-11-15T03:49:02;11.00;;;9.13;;
17253;SDS011;32542;52.832;13.816;2022-11-15T03:52:30;12.63;;;9.57;;
17253;SDS011;32542;52.832;13.816;2022-11-15T03:55:53;11.90;;;9.07;;
17253;SDS011;32542;52.832;13.816;2022-11-15T03:59:16;13.23;;;9.30;;
17253;SDS011;32542;52.832;13.816;2022-11-15T04:02:37;13.35;;;9.43;;
17253;SDS011;32542;52.832;13.816;2022-11-15T04:05:59;11.65;;;9.38;;
17253;SDS011;32542;52.832;13.816;2022-11-15T04:09:20;11.70;;;8.38;;
17253;SDS011;32542;52.832;13.816;2022-11-15T04:12:42;12.38;;;9.45;;
17253;SDS011;32542;52.832;13.816;2022-11-15T04:16:08;12.10;;;9.13;;
17253;SDS011;32542;52.832;13.816;2022-11-15T04:19:30;10.73;;;8.80;;
17253;SDS011;32542;52.832;13.816;2022-11-15T04:23:23;13.13;;;8.40;;
17253;SDS011;32542;52.832;13.816;2022-11-15T04:27:02;14.07;;;8.85;;
17253;SDS011;32542;52.832;13.816;2022-11-15T04:30:24;12.48;;;9.10;;
17253;SDS011;32542;52.832;13.816;2022-11-15T04:33:46;10.55;;;8.52;;
17253;SDS011;32542;52.832;13.816;2022-11-15T04:37:08;11.70;;;8.85;;
17253;SDS011;32542;52.832;13.816;2022-11-15T04:40:36;10.90;;;8.65;;
17253;SDS011;32542;52.832;13.816;2022-11-15T04:43:58;11.35;;;8.75;;
17253;SDS011;32542;52.832;13.816;2022-11-15T04:47:19;10.70;;;8.52;;
17253;SDS011;32542;52.832;13.816;2022-11-15T04:50:42;10.95;;;8.88;;
17253;SDS011;32542;52.832;13.816;2022-11-15T04:54:03;9.75;;;7.93;;
17253;SDS011;32542;52.832;13.816;2022-11-15T04:57:25;10.73;;;7.80;;
17253;SDS011;32542;52.832;13.816;2022-11-15T05:00:46;9.40;;;8.10;;
17253;SDS011;32542;52.832;13.816;2022-11-15T05:04:08;9.90;;;8.25;;
17253;SDS011;32542;52.832;13.816;2022-11-15T05:07:42;10.25;;;8.10;;
17253;SDS011;32542;52.832;13.816;2022-11-15T05:11:04;10.80;;;8.73;;
17253;SDS011;32542;52.832;13.816;2022-11-15T05:14:25;10.32;;;8.57;;
17253;SDS011;32542;52.832;13.816;2022-11-15T05:17:47;9.90;;;7.80;;
17253;SDS011;32542;52.832;13.816;2022-11-15T05:21:09;10.93;;;8.20;;
17253;SDS011;32542;52.832;13.816;2022-11-15T05:24:34;10.55;;;8.40;;
17253;SDS011;32542;52.832;13.816;2022-11-15T05:27:55;8.75;;;7.63;;
17253;SDS011;32542;52.832;13.816;2022-11-15T05:31:17;10.80;;;8.20;;
17253;SDS011;32542;52.832;13.816;2022-11-15T05:34:38;10.13;;;8.10;;
17253;SDS011;32542;52.832;13.816;2022-11-15T05:37:59;10.45;;;7.90;;
17253;SDS011;32542;52.832;13.816;2022-11-15T05:41:24;10.07;;;7.75;;
17253;SDS011;32542;52.832;13.816;2022-11-15T05:44:48;10.25;;;7.85;;
17253;SDS011;32542;52.832;13.816;2022-11-15T05:48:10;10.50;;;7.70;;
17253;SDS011;32542;52.832;13.816;2022-11-15T05:51:33;8.77;;;7.43;;
17253;SDS011;32542;52.832;13.816;2022-11-15T05:54:55;10.15;;;7.55;;
17253;SDS011;32542;52.832;13.816;2022-11-15T05:58:19;10.18;;;7.55;;
17253;SDS011;32542;52.832;13.816;2022-11-15T06:01:41;10.85;;;8.48;;
17253;SDS011;32542;52.832;13.816;2022-11-15T06:05:03;11.98;;;8.32;;
17253;SDS011;32542;52.832;13.816;2022-11-15T06:08:25;9.93;;;7.85;;
17253;SDS011;32542;52.832;13.816;2022-11-15T06:11:46;10.15;;;7.80;;
17253;SDS011;32542;52.832;13.816;2022-11-15T06:15:10;9.55;;;7.57;;
17253;SDS011;32542;52.832;13.816;2022-11-15T06:18:32;8.98;;;7.25;;
17253;SDS011;32542;52.832;13.816;2022-11-15T06:21:54;10.05;;;7.68;;
17253;SDS011;32542;52.832;13.816;2022-11-15T06:25:15;10.15;;;7.82;;
17253;SDS011;32542;52.832;13.816;2022-11-15T06:28:37;9.63;;;7.57;;
17253;SDS011;32542;52.832;13.816;2022-11-15T06:31:59;9.40;;;7.80;;
17253;SDS011;32542;52.832;13.816;2022-11-15T06:35:21;10.73;;;7.65;;
17253;SDS011;32542;52.832;13.816;2022-11-15T06:38:42;8.70;;;6.93;;
17253;SDS011;32542;52.832;13.816;2022-11-15T06:42:04;8.93;;;7.25;;
17253;SDS011;32542;52.832;13.816;2022-11-15T06:45:26;9.48;;;7.63;;
17253;SDS011;32542;52.832;13.816;2022-11-15T06:48:50;8.68;;;7.25;;
17253;SDS011;32542;52.832;13.816;2022-11-15T06:52:12;10.48;;;7.63;;
17253;SDS011;32542;52.832;13.816;2022-11-15T06:55:33;9.40;;;7.35;;
17253;SDS011;32542;52.832;13.816;2022-11-15T06:58:55;8.55;;;7.03;;
17253;SDS011;32542;52.832;13.816;2022-11-15T07:02:16;9.77;;;8.15;;
17253;SDS011;32542;52.832;13.816;2022-11-15T07:05:39;9.63;;;7.70;;
17253;SDS011;32542;52.832;13.816;2022-11-15T07:09:01;11.10;;;7.97;;
17253;SDS011;32542;52.832;13.816;2022-11-15T07:12:23;9.32;;;7.53;;
17253;SDS011;32542;52.832;13.816;2022-11-15T07:15:44;10.25;;;7.85;;
17253;SDS011;32542;52.832;13.816;2022-11-15T07:19:06;12.93;;;8.52;;
17253;SDS011;32542;52.832;13.816;2022-11-15T07:22:30;13.48;;;6.88;;
17253;SDS011;32542;52.832;13.816;2022-11-15T07:25:52;10.60;;;7.25;;
17253;SDS011;32542;52.832;13.816;2022-11-15T07:29:13;9.77;;;7.28;;
17253;SDS011;32542;52.832;13.816;2022-11-15T07:32:35;13.05;;;8.05;;
17253;SDS011;32542;52.832;13.816;2022-11-15T07:35:58;9.52;;;7.35;;
17253;SDS011;32542;52.832;13.816;2022-11-15T07:39:22;15.75;;;6.85;;
17253;SDS011;32542;52.832;13.816;2022-11-15T07:42:44;11.85;;;7.45;;
17253;SDS011;32542;52.832;13.816;2022-11-15T07:46:14;11.73;;;7.50;;
17253;SDS011;32542;52.832;13.816;2022-11-15T07:49:35;8.68;;;6.97;;
17253;SDS011;32542;52.832;13.816;2022-11-15T07:52:57;9.00;;;7.35;;
17253;SDS011;32542;52.832;13.816;2022-11-15T07:56:21;8.95;;;7.57;;
17253;SDS011;32542;52.832;13.816;2022-11-15T07:59:42;11.70;;;6.75;;
17253;SDS011;32542;52.832;13.816;2022-11-15T08:03:04;9.05;;;6.95;;
17253;SDS011;32542;52.832;13.816;2022-11-15T08:06:26;9.77;;;6.95;;
17253;SDS011;32542;52.832;13.816;2022-11-15T08:09:47;8.77;;;7.10;;
17253;SDS011;32542;52.832;13.816;2022-11-15T08:13:10;8.82;;;7.00;;
17253;SDS011;32542;52.832;13.816;2022-11-15T08:16:33;9.20;;;6.45;;
17253;SDS011;32542;52.832;13.816;2022-11-15T08:19:54;7.90;;;6.78;;
17253;SDS011;32542;52.832;13.816;2022-11-15T08:23:16;8.88;;;6.80;;
17253;SDS011;32542;52.832;13.816;2022-11-15T08:26:37;7.75;;;6.53;;
17253;SDS011;32542;52.832;13.816;2022-11-15T08:30:00;8.45;;;6.63;;
17253;SDS011;32542;52.832;13.816;2022-11-15T08:33:22;8.10;;;6.82;;
17253;SDS011;32542;52.832;13.816;2022-11-15T08:36:44;8.15;;;6.53;;
17253;SDS011;32542;52.832;13.816;2022-11-15T08:40:06;8.13;;;6.32;;
17253;SDS011;32542;52.832;13.816;2022-11-15T08:43:27;7.35;;;6.45;;
17253;SDS011;32542;52.832;13.816;2022-11-15T08:46:51;8.00;;;6.78;;
17253;SDS011;32542;52.832;13.816;2022-11-15T08:50:12;8.35;;;6.68;;
17253;SDS011;32542;52.832;13.816;2022-11-15T08:53:33;10.63;;;7.07;;
17253;SDS011;32542;52.832;13.816;2022-11-15T08:56:55;7.63;;;6.55;;
17253;SDS011;32542;52.832;13.816;2022-11-15T09:00:17;7.70;;;6.57;;
17253;SDS011;32542;52.832;13.816;2022-11-15T09:03:40;10.93;;;6.78;;
17253;SDS011;32542;52.832;13.816;2022-11-15T09:07:02;10.38;;;7.13;;
17253;SDS011;32542;52.832;13.816;2022-11-15T09:10:24;7.93;;;6.20;;
17253;SDS011;32542;52.832;13.816;2022-11-15T09:13:45;8.55;;;6.45;;
17253;SDS011;32542;52.832;13.816;2022-11-15T09:17:07;9.68;;;6.75;;
17253;SDS011;32542;52.832;13.816;2022-11-15T09:20:30;8.70;;;6.78;;
17253;SDS011;32542;52.832;13.816;2022-11-15T09:23:53;8.18;;;6.82;;
17253;SDS011;32542;52.832;13.816;2022-11-15T09:27:14;10.23;;;6.50;;
17253;SDS011;32542;52.832;13.816;2022-11-15T09:30:35;12.18;;;7.30;;
17253;SDS011;32542;52.832;13.816;2022-11-15T09:33:57;24.88;;;10.68;;
17253;SDS011;32542;52.832;13.816;2022-11-15T09:37:19;13.00;;;8.85;;
17253;SDS011;32542;52.832;13.816;2022-11-15T09:40:41;21.98;;;9.27;;
17253;SDS011;32542;52.832;13.816;2022-11-15T09:44:07;13.73;;;9.00;;
17253;SDS011;32542;52.832;13.816;2022-11-15T09:47:48;16.42;;;9.55;;
17253;SDS011;32542;52.832;13.816;2022-11-15T09:51:34;13.02;;;8.40;;
17253;SDS011;32542;52.832;13.816;2022-11-15T09:54:49;14.77;;;9.48;;
17253;SDS011;32542;52.832;13.816;2022-11-15T09:57:58;17.90;;;8.95;;
17253;SDS011;32542;52.832;13.816;2022-11-15T10:01:18;18.48;;;9.55;;
17253;SDS011;32542;52.832;13.816;2022-11-15T10:04:30;18.63;;;9.30;;
17253;SDS011;32542;52.832;13.816;2022-11-15T10:07:36;21.40;;;8.57;;
17253;SDS011;32542;52.832;13.816;2022-11-15T10:10:46;17.80;;;8.25;;
17253;SDS011;32542;52.832;13.816;2022-11-15T10:14:13;19.35;;;7.70;;
17253;SDS011;32542;52.832;13.816;2022-11-15T10:17:25;17.75;;;7.00;;
17253;SDS011;32542;52.832;13.816;2022-11-15T10:20:45;17.85;;;8.23;;
17253;SDS011;32542;52.832;13.816;2022-11-15T10:23:50;18.30;;;7.05;;
17253;SDS011;32542;52.832;13.816;2022-11-15T10:26:56;14.55;;;7.35;;
17253;SDS011;32542;52.832;13.816;2022-11-15T10:29:59;14.63;;;7.43;;
17253;SDS011;32542;52.832;13.816;2022-11-15T10:33:13;13.02;;;6.75;;
17253;SDS011;32542;52.832;13.816;2022-11-15T10:36:23;16.90;;;6.95;;
17253;SDS011;32542;52.832;13.816;2022-11-15T10:39:27;19.90;;;7.63;;
17253;SDS011;32542;52.832;13.816;2022-11-15T10:42:31;15.30;;;6.80;;
17253;SDS011;32542;52.832;13.816;2022-11-15T10:45:34;14.00;;;6.93;;
17253;SDS011;32542;52.832;13.816;2022-11-15T10:48:38;11.80;;;7.22;;
17253;SDS011;32542;52.832;13.816;2022-11-15T10:51:42;10.05;;;6.28;;
17253;SDS011;32542;52.832;13.816;2022-11-15T10:54:50;9.70;;;5.95;;
17253;SDS011;32542;52.832;13.816;2022-11-15T10:57:59;8.70;;;6.22;;
17253;SDS011;32542;52.832;13.816;2022-11-15T11:01:13;13.32;;;6.47;;
17253;SDS011;32542;52.832;13.816;2022-11-15T11:04:18;10.30;;;6.38;;
17253;SDS011;32542;52.832;13.816;2022-11-15T11:07:22;12.77;;;7.18;;
17253;SDS011;32542;52.832;13.816;2022-11-15T11:10:27;15.95;;;6.65;;
17253;SDS011;32542;52.832;13.816;2022-11-15T11:13:51;10.77;;;6.22;;
17253;SDS011;32542;52.832;13.816;2022-11-15T11:16:55;12.52;;;6.63;;
17253;SDS011;32542;52.832;13.816;2022-11-15T11:20:07;21.52;;;8.75;;
17253;SDS011;32542;52.832;13.816;2022-11-15T11:23:22;17.42;;;7.90;;
17253;SDS011;32542;52.832;13.816;2022-11-15T11:26:39;17.65;;;8.52;;
17253;SDS011;32542;52.832;13.816;2022-11-15T11:29:49;22.30;;;9.52;;
17253;SDS011;32542;52.832;13.816;2022-11-15T11:33:05;23.65;;;9.52;;
17253;SDS011;32542;52.832;13.816;2022-11-15T11:36:18;19.33;;;9.25;;
17253;SDS011;32542;52.832;13.816;2022-11-15T11:39:28;24.85;;;10.02;;
17253;SDS011;32542;52.832;13.816;2022-11-15T11:42:41;25.80;;;9.35;;
17253;SDS011;32542;52.832;13.816;2022-11-15T11:46:05;24.35;;;9.80;;
17253;SDS011;32542;52.832;13.816;2022-11-15T11:49:18;30.75;;;10.10;;
17253;SDS011;32542;52.832;13.816;2022-11-15T11:52:28;28.55;;;10.15;;
17253;SDS011;32542;52.832;13.816;2022-11-15T11:55:36;27.90;;;10.18;;
17253;SDS011;32542;52.832;13.816;2022-11-15T11:58:43;27.30;;;10.05;;
17253;SDS011;32542;52.832;13.816;2022-11-15T12:01:49;21.75;;;10.52;;
17253;SDS011;32542;52.832;13.816;2022-11-15T12:04:57;22.13;;;9.90;;
17253;SDS011;32542;52.832;13.816;2022-11-15T12:08:14;20.27;;;9.93;;
17253;SDS011;32542;52.832;13.816;2022-11-15T12:11:28;25.17;;;10.82;;
17253;SDS011;32542;52.832;13.816;2022-11-15T12:14:38;24.17;;;9.52;;
17253;SDS011;32542;52.832;13.816;2022-11-15T12:17:46;20.85;;;9.85;;
17253;SDS011;32542;52.832;13.816;2022-11-15T12:20:52;25.70;;;9.70;;
17253;SDS011;32542;52.832;13.816;2022-11-15T12:23:58;19.08;;;9.55;;
17253;SDS011;32542;52.832;13.816;2022-11-15T12:27:16;22.73;;;9.70;;
17253;SDS011;32542;52.832;13.816;2022-11-15T12:30:28;21.95;;;9.20;;
17253;SDS011;32542;52.832;13.816;2022-11-15T12:33:42;22.23;;;9.10;;
17253;SDS011;32542;52.832;13.816;2022-11-15T12:36:47;16.50;;;9.45;;
17253;SDS011;32542;52.832;13.816;2022-11-15T12:40:05;17.75;;;10.10;;
17253;SDS011;32542;52.832;13.816;2022-11-15T12:47:01;25.15;;;11.70;;
17253;SDS011;32542;52.832;13.816;2022-11-15T12:50:11;21.45;;;11.45;;
17253;SDS011;32542;52.832;13.816;2022-11-15T12:53:25;21.17;;;12.00;;
17253;SDS011;32542;52.832;13.816;2022-11-15T12:56:29;25.92;;;11.93;;
17253;SDS011;32542;52.832;13.816;2022-11-15T12:59:47;24.65;;;12.85;;
17253;SDS011;32542;52.832;13.816;2022-11-15T13:02:51;31.80;;;11.32;;
17253;SDS011;32542;52.832;13.816;2022-11-15T13:06:36;25.42;;;11.90;;
17253;SDS011;32542;52.832;13.816;2022-11-15T13:09:54;23.58;;;10.25;;
17253;SDS011;32542;52.832;13.816;2022-11-15T13:12:58;20.45;;;9.98;;
17253;SDS011;32542;52.832;13.816;2022-11-15T13:16:02;19.55;;;9.73;;
17253;SDS011;32542;52.832;13.816;2022-11-15T13:19:09;23.13;;;9.13;;
17253;SDS011;32542;52.832;13.816;2022-11-15T13:22:14;25.73;;;9.73;;
17253;SDS011;32542;52.832;13.816;2022-11-15T13:29:18;17.38;;;9.20;;
17253;SDS011;32542;52.832;13.816;2022-11-15T13:32:22;18.02;;;9.18;;
17253;SDS011;32542;52.832;13.816;2022-11-15T13:35:25;16.35;;;8.57;;
17253;SDS011;32542;52.832;13.816;2022-11-15T13:38:32;16.92;;;8.05;;
17253;SDS011;32542;52.832;13.816;2022-11-15T13:41:37;15.10;;;8.43;;
17253;SDS011;32542;52.832;13.816;2022-11-15T13:44:58;16.08;;;8.35;;
17253;SDS011;32542;52.832;13.816;2022-11-15T13:48:03;18.98;;;7.80;;
17253;SDS011;32542;52.832;13.816;2022-11-15T13:51:08;15.57;;;7.93;;
17253;SDS011;32542;52.832;13.816;2022-11-15T13:54:20;19.95;;;8.30;;
17253;SDS011;32542;52.832;13.816;2022-11-15T13:57:28;15.63;;;8.40;;
17253;SDS011;32542;52.832;13.816;2022-11-15T14:00:35;14.20;;;7.72;;
17253;SDS011;32542;52.832;13.816;2022-11-15T14:03:41;17.13;;;8.43;;
17253;SDS011;32542;52.832;13.816;2022-11-15T14:06:53;16.85;;;9.18;;
17253;SDS011;32542;52.832;13.816;2022-11-15T14:10:03;19.35;;;8.45;;
17253;SDS011;32542;52.832;13.816;2022-11-15T14:13:26;26.02;;;9.32;;
17253;SDS011;32542;52.832;13.816;2022-11-15T14:16:33;21.77;;;9.07;;
17253;SDS011;32542;52.832;13.816;2022-11-15T14:19:38;17.02;;;9.15;;
17253;SDS011;32542;52.832;13.816;2022-11-15T14:22:50;13.55;;;8.00;;
17253;SDS011;32542;52.832;13.816;2022-11-15T14:25:56;17.55;;;8.98;;
17253;SDS011;32542;52.832;13.816;2022-11-15T14:32:27;17.30;;;9.05;;
17253;SDS011;32542;52.832;13.816;2022-11-15T14:35:31;26.27;;;8.80;;
17253;SDS011;32542;52.832;13.816;2022-11-15T14:38:34;15.82;;;9.07;;
17253;SDS011;32542;52.832;13.816;2022-11-15T14:41:38;16.08;;;9.20;;
17253;SDS011;32542;52.832;13.816;2022-11-15T14:44:42;17.13;;;9.20;;
17253;SDS011;32542;52.832;13.816;2022-11-15T14:47:46;21.90;;;10.30;;
17253;SDS011;32542;52.832;13.816;2022-11-15T14:50:50;18.15;;;8.90;;
17253;SDS011;32542;52.832;13.816;2022-11-15T14:53:52;21.80;;;10.13;;
17253;SDS011;32542;52.832;13.816;2022-11-15T14:56:58;23.92;;;10.20;;
17253;SDS011;32542;52.832;13.816;2022-11-15T15:00:01;13.48;;;9.70;;
17253;SDS011;32542;52.832;13.816;2022-11-15T15:03:13;15.93;;;9.38;;
17253;SDS011;32542;52.832;13.816;2022-11-15T15:06:16;15.70;;;9.45;;
17253;SDS011;32542;52.832;13.816;2022-11-15T15:09:19;19.73;;;10.00;;
17253;SDS011;32542;52.832;13.816;2022-11-15T15:12:23;18.85;;;9.82;;
17253;SDS011;32542;52.832;13.816;2022-11-15T15:15:29;16.63;;;9.27;;
17253;SDS011;32542;52.832;13.816;2022-11-15T15:18:34;15.18;;;9.00;;
17253;SDS011;32542;52.832;13.816;2022-11-15T15:21:37;19.33;;;9.82;;
17253;SDS011;32542;52.832;13.816;2022-11-15T15:24:40;17.40;;;9.38;;
17253;SDS011;32542;52.832;13.816;2022-11-15T15:27:45;19.20;;;9.30;;
17253;SDS011;32542;52.832;13.816;2022-11-15T15:30:48;14.25;;;8.88;;
17253;SDS011;32542;52.832;13.816;2022-11-15T15:33:51;17.15;;;8.88;;
17253;SDS011;32542;52.832;13.816;2022-11-15T15:37:06;19.73;;;9.40;;
17253;SDS011;32542;52.832;13.816;2022-11-15T15:40:10;14.70;;;8.68;;
17253;SDS011;32542;52.832;13.816;2022-11-15T15:43:18;17.33;;;8.77;;
17253;SDS011;32542;52.832;13.816;2022-11-15T15:46:21;17.58;;;9.65;;
17253;SDS011;32542;52.832;13.816;2022-11-15T15:49:24;16.70;;;9.02;;
17253;SDS011;32542;52.832;13.816;2022-11-15T15:52:27;18.48;;;9.32;;
17253;SDS011;32542;52.832;13.816;2022-11-15T15:55:30;15.90;;;9.38;;
17253;SDS011;32542;52.832;13.816;2022-11-15T15:58:35;15.88;;;8.52;;
17253;SDS011;32542;52.832;13.816;2022-11-15T16:01:38;17.45;;;8.77;;
17253;SDS011;32542;52.832;13.816;2022-11-15T16:04:41;15.73;;;8.73;;
17253;SDS011;32542;52.832;13.816;2022-11-15T16:07:44;12.45;;;7.97;;
17253;SDS011;32542;52.832;13.816;2022-11-15T16:10:49;13.68;;;8.20;;
17253;SDS011;32542;52.832;13.816;2022-11-15T16:13:54;18.17;;;8.57;;
17253;SDS011;32542;52.832;13.816;2022-11-15T16:16:56;12.55;;;8.05;;
17253;SDS011;32542;52.832;13.816;2022-11-15T16:20:00;12.43;;;7.97;;
17253;SDS011;32542;52.832;13.816;2022-11-15T16:23:04;16.27;;;8.25;;
17253;SDS011;32542;52.832;13.816;2022-11-15T16:26:13;14.52;;;8.75;;
17253;SDS011;32542;52.832;13.816;2022-11-15T16:29:24;26.10;;;8.45;;
17253;SDS011;32542;52.832;13.816;2022-11-15T16:32:27;21.13;;;9.43;;
17253;SDS011;32542;52.832;13.816;2022-11-15T16:35:30;17.10;;;8.48;;
17253;SDS011;32542;52.832;13.816;2022-11-15T16:38:32;16.80;;;8.75;;
17253;SDS011;32542;52.832;13.816;2022-11-15T16:41:37;14.68;;;7.78;;
17253;SDS011;32542;52.832;13.816;2022-11-15T16:44:41;15.38;;;8.13;;
17253;SDS011;32542;52.832;13.816;2022-11-15T16:47:45;16.98;;;8.52;;
17253;SDS011;32542;52.832;13.816;2022-11-15T16:50:48;14.32;;;8.30;;
17253;SDS011;32542;52.832;13.816;2022-11-15T16:53:50;15.07;;;8.50;;
17253;SDS011;32542;52.832;13.816;2022-11-15T16:56:53;12.68;;;8.35;;
17253;SDS011;32542;52.832;13.816;2022-11-15T16:59:58;15.48;;;8.73;;
17253;SDS011;32542;52.832;13.816;2022-11-15T17:03:00;14.73;;;8.43;;
17253;SDS011;32542;52.832;13.816;2022-11-15T17:06:04;20.02;;;8.18;;
17253;SDS011;32542;52.832;13.816;2022-11-15T17:09:09;14.68;;;8.57;;
17253;SDS011;32542;52.832;13.816;2022-11-15T17:12:14;16.73;;;8.30;;
17253;SDS011;32542;52.832;13.816;2022-11-15T17:15:18;14.77;;;8.40;;
17253;SDS011;32542;52.832;13.816;2022-11-15T17:18:21;13.80;;;8.13;;
17253;SDS011;32542;52.832;13.816;2022-11-15T17:21:24;20.02;;;8.68;;
17253;SDS011;32542;52.832;13.816;2022-11-15T17:24:34;14.90;;;8.55;;
17253;SDS011;32542;52.832;13.816;2022-11-15T17:27:37;20.58;;;9.07;;
17253;SDS011;32542;52.832;13.816;2022-11-15T17:30:41;21.00;;;9.50;;
17253;SDS011;32542;52.832;13.816;2022-11-15T17:33:44;13.65;;;8.32;;
17253;SDS011;32542;52.832;13.816;2022-11-15T17:36:47;27.85;;;9.13;;
17253;SDS011;32542;52.832;13.816;2022-11-15T17:39:50;20.23;;;8.93;;
17253;SDS011;32542;52.832;13.816;2022-11-15T17:42:53;16.17;;;9.10;;
17253;SDS011;32542;52.832;13.816;2022-11-15T17:45:58;16.27;;;8.85;;
17253;SDS011;32542;52.832;13.816;2022-11-15T17:49:05;18.65;;;9.70;;
17253;SDS011;32542;52.832;13.816;2022-11-15T17:52:08;17.42;;;8.63;;
17253;SDS011;32542;52.832;13.816;2022-11-15T17:55:11;18.35;;;9.30;;
17253;SDS011;32542;52.832;13.816;2022-11-15T17:58:14;14.30;;;9.90;;
17253;SDS011;32542;52.832;13.816;2022-11-15T18:01:22;19.35;;;9.90;;
17253;SDS011;32542;52.832;13.816;2022-11-15T18:04:26;23.23;;;9.27;;
17253;SDS011;32542;52.832;13.816;2022-11-15T18:07:29;22.05;;;10.35;;
17253;SDS011;32542;52.832;13.816;2022-11-15T18:10:32;20.38;;;10.27;;
17253;SDS011;32542;52.832;13.816;2022-11-15T18:13:35;20.65;;;9.90;;
17253;SDS011;32542;52.832;13.816;2022-11-15T18:16:40;19.55;;;9.20;;
17253;SDS011;32542;52.832;13.816;2022-11-15T18:19:44;19.38;;;10.52;;
17253;SDS011;32542;52.832;13.816;2022-11-15T18:22:48;25.92;;;9.40;;
17253;SDS011;32542;52.832;13.816;2022-11-15T18:25:54;20.10;;;9.57;;
17253;SDS011;32542;52.832;13.816;2022-11-15T18:29:00;16.60;;;8.45;;
17253;SDS011;32542;52.832;13.816;2022-11-15T18:32:06;22.05;;;9.60;;
17253;SDS011;32542;52.832;13.816;2022-11-15T18:35:12;18.08;;;9.40;;
17253;SDS011;32542;52.832;13.816;2022-11-15T18:38:15;22.63;;;10.05;;
17253;SDS011;32542;52.832;13.816;2022-11-15T18:41:18;16.67;;;10.02;;
17253;SDS011;32542;52.832;13.816;2022-11-15T18:44:24;20.15;;;10.43;;
17253;SDS011;32542;52.832;13.816;2022-11-15T18:47:31;17.27;;;9.90;;
17253;SDS011;32542;52.832;13.816;2022-11-15T18:50:34;21.85;;;10.40;;
17253;SDS011;32542;52.832;13.816;2022-11-15T18:53:37;16.63;;;9.77;;
17253;SDS011;32542;52.832;13.816;2022-11-15T18:56:41;18.35;;;9.63;;
17253;SDS011;32542;52.832;13.816;2022-11-15T18:59:45;20.60;;;10.75;;
17253;SDS011;32542;52.832;13.816;2022-11-15T19:02:50;16.85;;;9.60;;
17253;SDS011;32542;52.832;13.816;2022-11-15T19:05:59;17.55;;;9.98;;
17253;SDS011;32542;52.832;13.816;2022-11-15T19:09:03;16.75;;;10.55;;
17253;SDS011;32542;52.832;13.816;2022-11-15T19:12:06;24.10;;;11.30;;
17253;SDS011;32542;52.832;13.816;2022-11-15T19:15:09;15.60;;;9.68;;
17253;SDS011;32542;52.832;13.816;2022-11-15T19:18:14;21.27;;;10.82;;